createdAt,value
2019-04-23T00:05:29.111Z,9.33
2019-04-23T00:10:24.823Z,9.21
2019-04-23T00:12:49.731Z,9.39
2019-04-23T00:17:50.512Z,9.33
2019-04-23T00:20:19.662Z,9.39
2019-04-23T00:22:58.970Z,9.33
2019-04-23T00:27:51.578Z,9.33
2019-04-23T00:30:18.753Z,9.27
2019-04-23T00:32:48.010Z,9.37
2019-04-23T00:35:19.926Z,9.17
2019-04-23T00:37:49.966Z,9.16
2019-04-23T00:40:20.292Z,9.14
2019-04-23T00:45:33.297Z,9.13
2019-04-23T00:47:59.375Z,9.36
2019-04-23T00:52:57.695Z,9.13
2019-04-23T00:55:28.212Z,9.18
2019-04-23T00:58:08.189Z,9.20
2019-04-23T01:08:13.520Z,9.12
2019-04-23T01:13:25.155Z,9.06
2019-04-23T01:18:30.241Z,9.06
2019-04-23T01:20:50.262Z,9.08
2019-04-23T01:22:57.401Z,8.98
2019-04-23T01:25:35.082Z,8.93
2019-04-23T01:28:23.492Z,8.93
2019-04-23T01:30:59.723Z,8.92
2019-04-23T01:33:27.068Z,9.00
2019-04-23T01:36:06.403Z,8.92
2019-04-23T01:38:32.536Z,8.90
2019-04-23T01:40:47.516Z,9.07
2019-04-23T01:43:23.781Z,9.06
2019-04-23T01:45:50.127Z,8.88
2019-04-23T01:48:24.355Z,8.91
2019-04-23T01:50:52.869Z,8.94
2019-04-23T01:53:27.245Z,8.84
2019-04-23T01:55:51.191Z,8.80
2019-04-23T01:58:32.182Z,8.77
2019-04-23T02:00:53.135Z,8.79
2019-04-23T02:03:24.547Z,8.77
2019-04-23T02:05:55.764Z,8.83
2019-04-23T02:08:20.719Z,8.82
2019-04-23T02:10:58.748Z,8.70
2019-04-23T02:13:28.987Z,8.55
2019-04-23T02:15:53.837Z,8.61
2019-04-23T02:18:24.982Z,8.56
2019-04-23T02:20:53.658Z,8.49
2019-04-23T02:23:28.027Z,8.59
2019-04-23T02:28:31.143Z,8.54
2019-04-23T02:36:08.227Z,8.30
2019-04-23T02:41:12.862Z,8.35
2019-04-23T02:43:29.863Z,8.46
2019-04-23T02:46:05.571Z,8.35
2019-04-23T02:56:37.615Z,8.07
2019-04-23T02:58:54.882Z,8.01
2019-04-23T03:09:00.750Z,7.74
2019-04-23T03:26:51.605Z,7.49
2019-04-23T03:29:10.592Z,7.53
2019-04-23T03:39:30.083Z,7.36
2019-04-23T03:42:16.340Z,7.34
2019-04-23T03:44:31.460Z,7.37
2019-04-23T03:46:49.897Z,7.33
2019-04-23T03:49:32.553Z,7.29
2019-04-23T03:52:04.435Z,7.17
2019-04-23T04:07:10.134Z,7.09
2019-04-23T04:09:45.741Z,7.07
2019-04-23T04:12:04.337Z,7.11
2019-04-23T04:17:10.243Z,6.95
2019-04-23T04:19:42.360Z,6.88
2019-04-23T04:22:11.440Z,7.03
2019-04-23T04:27:19.272Z,6.96
2019-04-23T04:30:03.974Z,7.10
2019-04-23T04:35:12.803Z,7.10
2019-04-23T04:42:14.650Z,7.01
2019-04-23T04:45:13.631Z,7.05
2019-04-23T04:47:36.067Z,7.13
2019-04-23T04:54:49.806Z,7.16
2019-04-23T05:02:53.090Z,7.30
2019-04-23T05:07:35.953Z,7.31
2019-04-23T05:17:44.908Z,7.48
2019-04-23T05:20:05.042Z,7.69
2019-04-23T05:22:33.761Z,7.69
2019-04-23T05:27:48.342Z,8.04
2019-04-23T05:32:43.529Z,8.26
2019-04-23T05:35:15.079Z,8.27
2019-04-23T05:37:50.374Z,8.37
2019-04-23T05:40:15.184Z,8.39
2019-04-23T05:42:41.273Z,8.48
2019-04-23T05:45:08.312Z,8.58
2019-04-23T05:47:34.673Z,8.59
2019-04-23T05:55:10.659Z,8.88
2019-04-23T05:57:38.537Z,8.87
2019-04-23T06:02:57.293Z,9.16
2019-04-23T06:05:22.209Z,9.21
2019-04-23T06:07:49.383Z,9.23
2019-04-23T06:12:57.778Z,9.57
2019-04-23T06:15:31.574Z,9.73
2019-04-23T06:18:01.782Z,9.84
2019-04-23T06:20:35.011Z,9.88
2019-04-23T06:23:11.254Z,9.96
2019-04-23T06:28:01.565Z,10.12
2019-04-23T06:30:49.091Z,10.23
2019-04-23T06:32:59.654Z,10.41
2019-04-23T06:35:31.990Z,10.42
2019-04-23T06:38:39.147Z,10.75
2019-04-23T06:40:34.276Z,10.95
2019-04-23T06:43:02.200Z,10.97
2019-04-23T06:45:30.640Z,11.14
2019-04-23T06:48:03.370Z,11.15
2019-04-23T06:50:29.930Z,11.27
2019-04-23T06:52:54.550Z,11.50
2019-04-23T06:55:30.237Z,11.45
2019-04-23T06:58:08.942Z,11.59
2019-04-23T07:02:59.759Z,12.31
2019-04-23T07:05:29.828Z,12.21
2019-04-23T07:08:05.891Z,12.18
2019-04-23T07:10:35.262Z,12.35
2019-04-23T07:13:03.162Z,12.48
2019-04-23T07:15:38.038Z,12.56
2019-04-23T07:17:55.352Z,12.69
2019-04-23T07:20:27.356Z,12.80
2019-04-23T07:23:07.888Z,12.84
2019-04-23T07:25:47.058Z,12.97
2019-04-23T07:28:06.921Z,13.05
2019-04-23T07:33:04.551Z,13.34
2019-04-23T07:35:31.809Z,13.59
2019-04-23T07:38:16.541Z,13.64
2019-04-23T07:45:35.265Z,13.86
2019-04-23T07:48:06.525Z,14.04
2019-04-23T07:53:05.551Z,14.17
2019-04-23T07:55:44.871Z,14.41
2019-04-23T07:58:10.617Z,14.40
2019-04-23T08:03:14.442Z,14.59
2019-04-23T08:08:00.221Z,14.83
2019-04-23T08:13:14.433Z,15.02
2019-04-23T08:15:35.305Z,14.98
2019-04-23T08:18:02.740Z,14.99
2019-04-23T08:20:35.691Z,15.16
2019-04-23T08:23:03.765Z,15.40
2019-04-23T08:25:34.045Z,15.37
2019-04-23T08:28:12.111Z,15.57
2019-04-23T08:33:12.085Z,15.62
2019-04-23T08:35:43.289Z,15.94
2019-04-23T08:38:20.539Z,16.07
2019-04-23T08:40:44.365Z,16.17
2019-04-23T08:43:22.161Z,16.23
2019-04-23T08:45:35.386Z,16.32
2019-04-23T08:56:07.644Z,16.60
2019-04-23T09:00:55.316Z,16.69
2019-04-23T09:05:55.882Z,16.96
2019-04-23T09:08:19.286Z,16.99
2019-04-23T09:10:56.685Z,17.11
2019-04-23T09:15:51.797Z,17.34
2019-04-23T09:18:21.025Z,17.46
2019-04-23T09:20:47.990Z,17.63
2019-04-23T09:23:30.903Z,17.71
2019-04-23T09:28:27.680Z,17.77
2019-04-23T09:30:55.510Z,17.83
2019-04-23T09:33:25.930Z,17.93
2019-04-23T09:35:57.280Z,17.77
2019-04-23T09:38:29.871Z,17.64
2019-04-23T09:41:04.008Z,17.76
2019-04-23T09:43:19.321Z,17.85
2019-04-23T09:45:58.039Z,17.89
2019-04-23T09:48:17.476Z,17.89
2019-04-23T09:53:25.197Z,17.96
2019-04-23T09:55:45.471Z,17.92
2019-04-23T09:58:15.467Z,17.92
2019-04-23T10:03:20.161Z,18.22
2019-04-23T10:05:46.079Z,18.30
2019-04-23T10:08:15.320Z,18.45
2019-04-23T10:10:34.355Z,18.66
2019-04-23T10:13:04.326Z,18.63
2019-04-23T10:15:40.052Z,18.67
2019-04-23T10:18:04.568Z,18.56
2019-04-23T10:20:34.527Z,18.72
2019-04-23T10:23:04.364Z,18.66
2019-04-23T10:25:34.291Z,18.64
2019-04-23T10:28:08.537Z,18.80
2019-04-23T10:30:34.260Z,18.77
2019-04-23T10:33:05.447Z,18.71
2019-04-23T10:35:44.553Z,18.76
2019-04-23T10:38:10.014Z,18.99
2019-04-23T10:40:38.878Z,18.85
2019-04-23T10:43:05.430Z,18.83
2019-04-23T10:45:51.381Z,18.95
2019-04-23T10:48:40.260Z,19.08
2019-04-23T10:50:58.806Z,19.10
2019-04-23T10:53:42.782Z,19.12
2019-04-23T10:56:03.730Z,19.04
2019-04-23T11:01:05.051Z,19.24
2019-04-23T11:06:06.835Z,19.23
2019-04-23T11:08:27.785Z,19.33
2019-04-23T11:11:09.465Z,19.43
2019-04-23T11:18:48.826Z,19.50
2019-04-23T11:21:09.650Z,19.45
2019-04-23T11:23:39.252Z,19.57
2019-04-23T11:26:06.971Z,19.49
2019-04-23T11:28:33.313Z,19.57
2019-04-23T11:31:09.390Z,19.59
2019-04-23T11:33:50.983Z,19.50
2019-04-23T11:38:50.798Z,19.88
2019-04-23T11:41:17.033Z,20.00
2019-04-23T11:43:34.328Z,19.85
2019-04-23T11:48:51.336Z,19.79
2019-04-23T11:56:13.614Z,20.10
2019-04-23T11:58:39.678Z,20.02
2019-04-23T12:01:23.727Z,20.19
2019-04-23T12:03:45.663Z,20.31
2019-04-23T12:08:37.847Z,20.49
2019-04-23T12:11:35.420Z,20.35
2019-04-23T12:13:52.624Z,20.26
2019-04-23T12:16:12.155Z,19.85
2019-04-23T12:18:38.749Z,19.94
2019-04-23T12:21:04.745Z,20.04
2019-04-23T12:23:48.412Z,20.32
2019-04-23T12:26:15.512Z,20.37
2019-04-23T12:28:39.812Z,20.46
2019-04-23T12:31:09.836Z,20.61
2019-04-23T12:36:46.771Z,20.63
2019-04-23T12:39:21.887Z,20.68
2019-04-23T12:41:52.327Z,20.64
2019-04-23T12:44:17.836Z,20.86
2019-04-23T12:46:54.211Z,20.94
2019-04-23T12:49:35.703Z,21.00
2019-04-23T12:51:47.270Z,21.09
2019-04-23T12:54:31.899Z,21.02
2019-04-23T12:59:28.629Z,20.72
2019-04-23T13:02:16.117Z,20.78
2019-04-23T13:04:24.948Z,21.06
2019-04-23T13:06:57.556Z,20.78
2019-04-23T13:09:41.891Z,20.75
2019-04-23T13:14:41.654Z,20.72
2019-04-23T13:17:09.728Z,20.65
2019-04-23T13:19:49.242Z,20.72
2019-04-23T13:22:24.279Z,20.48
2019-04-23T13:24:32.832Z,20.48
2019-04-23T13:27:15.843Z,20.64
2019-04-23T13:32:07.100Z,20.69
2019-04-23T13:34:42.867Z,20.71
2019-04-23T13:37:16.612Z,20.78
2019-04-23T13:39:39.735Z,20.85
2019-04-23T13:42:07.572Z,20.76
2019-04-23T13:44:42.484Z,20.72
2019-04-23T13:47:18.195Z,20.76
2019-04-23T13:49:33.328Z,20.82
2019-04-23T13:52:24.203Z,20.51
2019-04-23T13:54:56.382Z,20.55
2019-04-23T13:59:44.482Z,20.29
2019-04-23T14:02:23.345Z,20.42
2019-04-23T14:07:23.338Z,20.49
2019-04-23T14:10:05.065Z,20.65
2019-04-23T14:12:17.703Z,20.33
2019-04-23T14:17:26.896Z,20.28
2019-04-23T14:19:47.255Z,20.30
2019-04-23T14:24:59.276Z,20.55
2019-04-23T14:27:20.072Z,20.51
2019-04-23T14:32:24.683Z,20.26
2019-04-23T14:34:54.654Z,20.31
2019-04-23T14:39:47.646Z,20.56
2019-04-23T14:44:52.407Z,20.53
2019-04-23T14:47:23.861Z,20.51
2019-04-23T14:50:10.263Z,20.46
2019-04-23T14:52:21.309Z,20.72
2019-04-23T14:59:46.821Z,20.53
2019-04-23T15:02:23.582Z,20.38
2019-04-23T15:04:51.781Z,20.23
2019-04-23T15:07:24.234Z,20.32
2019-04-23T15:09:57.627Z,20.31
2019-04-23T15:14:54.369Z,20.56
2019-04-23T15:22:20.362Z,20.26
2019-04-23T15:28:00.814Z,20.14
2019-04-23T15:29:30.237Z,19.96
2019-04-23T15:32:19.860Z,19.89
2019-04-23T15:37:39.649Z,19.91
2019-04-23T15:40:04.282Z,19.59
2019-04-23T15:42:34.857Z,19.71
2019-04-23T15:45:08.157Z,19.49
2019-04-23T15:50:03.180Z,19.38
2019-04-23T15:52:33.333Z,19.25
2019-04-23T15:55:01.655Z,19.18
2019-04-23T15:57:49.935Z,19.25
2019-04-23T15:59:56.004Z,19.48
2019-04-23T16:01:58.381Z,19.41
2019-04-23T16:04:29.683Z,19.28
2019-04-23T16:06:59.546Z,19.25
2019-04-23T16:12:31.874Z,19.15
2019-04-23T16:15:06.500Z,19.16
2019-04-23T16:17:37.796Z,19.02
2019-04-23T16:20:25.830Z,19.11
2019-04-23T16:22:36.711Z,19.21
2019-04-23T16:25:06.681Z,19.18
2019-04-23T16:27:32.001Z,19.04
2019-04-23T16:32:37.760Z,19.07
2019-04-23T16:35:18.230Z,18.75
2019-04-23T16:37:38.843Z,18.76
2019-04-23T16:40:13.795Z,18.73
2019-04-23T16:42:38.222Z,18.61
2019-04-23T16:45:12.557Z,18.58
2019-04-23T16:47:38.794Z,18.97
2019-04-23T16:52:32.647Z,18.64
2019-04-23T16:55:14.286Z,18.83
2019-04-23T16:57:43.722Z,18.66
2019-04-23T17:02:33.685Z,18.49
2019-04-23T17:05:15.800Z,18.41
2019-04-23T17:07:36.859Z,18.54
2019-04-23T17:10:12.679Z,18.44
2019-04-23T17:12:37.945Z,18.27
2019-04-23T17:15:10.913Z,18.47
2019-04-23T17:17:30.989Z,18.33
2019-04-23T17:20:24.901Z,18.34
2019-04-23T17:22:39.291Z,18.28
2019-04-23T17:25:13.399Z,18.31
2019-04-23T17:27:41.843Z,18.14
2019-04-23T17:30:14.665Z,18.02
2019-04-23T17:32:38.716Z,18.26
2019-04-23T17:35:17.583Z,18.03
2019-04-23T17:37:40.987Z,18.13
2019-04-23T17:40:15.433Z,17.92
2019-04-23T17:42:39.347Z,17.76
2019-04-23T17:47:52.514Z,17.69
2019-04-23T17:50:25.115Z,17.37
2019-04-23T17:52:58.307Z,17.64
2019-04-23T17:57:55.942Z,17.56
2019-04-23T18:00:25.478Z,17.44
2019-04-23T18:05:36.335Z,17.42
2019-04-23T18:12:53.673Z,17.23
2019-04-23T18:15:15.496Z,17.21
2019-04-23T18:20:31.628Z,16.98
2019-04-23T18:22:58.501Z,16.98
2019-04-23T18:25:26.187Z,16.86
2019-04-23T18:30:17.817Z,16.80
2019-04-23T18:33:22.283Z,16.76
2019-04-23T18:37:56.488Z,16.73
2019-04-23T18:40:28.468Z,16.67
2019-04-23T18:43:07.309Z,16.60
2019-04-23T18:45:39.094Z,16.55
2019-04-23T18:47:54.834Z,16.40
2019-04-23T18:50:45.559Z,16.45
2019-04-23T18:53:02.336Z,16.41
2019-04-23T18:58:15.511Z,16.30
2019-04-23T19:00:45.431Z,16.12
2019-04-23T19:05:36.226Z,16.17
2019-04-23T19:08:07.633Z,16.18
2019-04-23T19:10:31.832Z,16.21
2019-04-23T19:13:03.441Z,15.97
2019-04-23T19:15:37.083Z,15.89
2019-04-23T19:18:12.377Z,16.21
2019-04-23T19:20:45.244Z,16.25
2019-04-23T19:23:19.435Z,15.97
2019-04-23T19:25:25.924Z,15.92
2019-04-23T19:30:43.129Z,15.96
2019-04-23T19:33:05.558Z,15.80
2019-04-23T19:35:50.213Z,15.85
2019-04-23T19:38:08.178Z,15.84
2019-04-23T19:43:11.158Z,15.66
2019-04-23T19:50:53.662Z,15.55
2019-04-23T19:55:57.129Z,15.68
2019-04-23T19:58:14.194Z,15.50
2019-04-23T20:05:59.481Z,15.51
2019-04-23T20:08:34.000Z,15.41
2019-04-23T20:10:50.440Z,15.54
2019-04-23T20:13:30.352Z,15.36
2019-04-23T20:18:21.885Z,15.37
2019-04-23T20:23:40.421Z,15.19
2019-04-23T20:26:12.225Z,15.26
2019-04-23T20:28:41.073Z,15.06
2019-04-23T20:31:03.985Z,15.01
2019-04-23T20:35:56.625Z,14.89
2019-04-23T20:38:33.007Z,15.03
2019-04-23T20:43:23.766Z,15.25
2019-04-23T20:45:55.997Z,15.40
2019-04-23T20:48:25.261Z,14.93
2019-04-23T20:53:28.380Z,14.73
2019-04-23T20:58:13.756Z,14.70
2019-04-23T21:00:57.009Z,14.70
2019-04-23T21:05:41.884Z,14.70
2019-04-23T21:08:24.550Z,14.72
2019-04-23T21:10:58.455Z,14.58
2019-04-23T21:18:22.488Z,14.43
2019-04-23T21:21:05.048Z,14.39
2019-04-23T21:23:21.149Z,14.51
2019-04-23T21:25:47.489Z,14.39
2019-04-23T21:28:30.729Z,14.57
2019-04-23T21:31:03.466Z,14.64
2019-04-23T21:33:30.144Z,14.58
2019-04-23T21:36:02.869Z,14.55
2019-04-23T21:38:30.259Z,14.35
2019-04-23T21:43:38.854Z,14.25
2019-04-23T21:46:02.469Z,14.32
2019-04-23T21:48:31.338Z,14.48
2019-04-23T21:50:57.812Z,14.14
2019-04-23T21:53:29.222Z,14.15
2019-04-23T21:56:06.955Z,14.35
2019-04-23T21:58:26.193Z,14.17
2019-04-23T22:00:59.350Z,14.12
2019-04-23T22:03:30.786Z,14.23
2019-04-23T22:06:01.719Z,14.17
2019-04-23T22:08:16.917Z,13.95
2019-04-23T22:11:10.697Z,14.05
2019-04-23T22:13:29.430Z,13.98
2019-04-23T22:18:23.525Z,14.06
2019-04-23T22:23:42.007Z,14.22
2019-04-23T22:26:07.942Z,14.16
2019-04-23T22:28:43.401Z,14.05
2019-04-23T22:31:12.392Z,14.04
2019-04-23T22:33:37.362Z,14.02
2019-04-23T22:36:14.966Z,13.88
2019-04-23T22:38:33.761Z,13.88
2019-04-23T22:41:02.028Z,14.08
2019-04-23T22:48:34.612Z,13.91
2019-04-23T22:53:41.752Z,13.99
2019-04-23T22:56:06.549Z,14.04
2019-04-23T22:58:48.976Z,13.88
2019-04-23T23:01:12.706Z,13.94
2019-04-23T23:03:33.655Z,13.85
2019-04-23T23:08:50.309Z,13.91
2019-04-23T23:11:02.341Z,14.00
2019-04-23T23:13:50.298Z,13.88
2019-04-23T23:16:16.743Z,13.86
2019-04-23T23:18:34.068Z,13.80
2019-04-23T23:21:09.763Z,13.71
2019-04-23T23:23:30.088Z,13.78
2019-04-23T23:26:15.630Z,13.73
2019-04-23T23:28:37.950Z,13.68
2019-04-23T23:31:08.520Z,13.56
2019-04-23T23:33:41.225Z,13.59
2019-04-23T23:36:10.468Z,13.51
2019-04-23T23:38:42.156Z,13.60
2019-04-23T23:41:14.134Z,13.49
2019-04-23T23:43:29.987Z,13.42
2019-04-23T23:46:13.975Z,13.53
2019-04-23T23:48:36.042Z,13.36
2019-04-23T23:51:11.630Z,13.43
2019-04-23T23:53:51.618Z,13.45
2019-04-23T23:58:40.705Z,13.18
